Hlavní strana
METAR-TAF:

METAR-TAF

Letiště :

Belleville, Illinois, Spojené státy americké

zeměpisná šířka: 38-33N, zeměpisná délka: 089-51W, výška: 140 m

Aktuální stav počasí

Zpráva byla vytvořena před 1 hodinou a 13 minutami, v 02:56 UTC
Jižní vítr 4 kt
Teplota -2°C
Vlhkost vzduchu 50%
Tlak 1032 hPa
Viditelnost: 16.1 km
Jasno

METAR: KBLV 220256Z AUTO 17004KT 10SM CLR M02/M11 A3047 RMK AO2 SLP328 T10181109 58005 $

Čas: 22:09 (04:09 UTC)

Předpověď počasí

Zpráva byla vytvořena před 4 hodinami a 9 minutami, v 00:00 UTC
Předpověď platná od 22 v 00 UTC do 23 v 06 UTC
Jižní vítr 6 kt
Viditelnost 10 km a více
Skoro jasno ve výšce 15000 ft
Změna
od 22 v 17 UTC do 22 v 18 UTC
Jihojihozápadní vítr 9 kt s nárazy do 18 kt
Viditelnost: 2223 m
Skoro jasno ve výšce 20000 ft

TAF: KBLV 220000Z 2200/2306 19006KT 9999 FEW150 QNH3035INS BECMG 2217/2218 20012G18KT 9999 FEW200 QNH3017INS WND 21009KT AFT 2223 TX08/2221Z TNM04/2212Z

Stav a předpovědi počasí z více než 4 000 letišť (zprávy METAR a TAF).

Červené a žluté tečky na mapě představují dostupné meteorologické stanice.

Když kurzor umístíte na tečku, zobrazí se název stanice.

Pak kliknutím zobrazíte stav a předpověď počasí.

Chcete-li změnit mapu, kliknutím na zelené tlačítko se znaménkem +mapu přiblížíte, kliknutím na zelené tlačítko se znaménkem – mapu oddálíte a kliknutím na zelené šipky přejdete na sousední mapy.


METAR-TAF: